createdAt,value
2022-10-05T00:00:24.436Z,72.34
2022-10-05T00:01:24.513Z,71.44
2022-10-05T00:02:24.433Z,71.26
2022-10-05T00:03:24.374Z,71.33
2022-10-05T00:04:24.403Z,71.77
2022-10-05T00:05:24.412Z,71.67
2022-10-05T00:06:24.370Z,72.04
2022-10-05T00:07:24.331Z,72.17
2022-10-05T00:08:24.337Z,71.88
2022-10-05T00:09:24.340Z,71.77
2022-10-05T00:10:24.309Z,71.88
2022-10-05T00:11:24.293Z,71.57
2022-10-05T00:12:24.280Z,71.97
2022-10-05T00:13:24.274Z,71.67
2022-10-05T00:14:24.269Z,71.67
2022-10-05T00:15:24.277Z,71.84
2022-10-05T00:16:24.322Z,71.77
2022-10-05T00:17:24.220Z,71.57
2022-10-05T00:18:24.226Z,71.36
2022-10-05T00:19:24.206Z,71.26
2022-10-05T00:20:24.240Z,71.47
2022-10-05T00:21:24.189Z,71.67
2022-10-05T00:22:24.183Z,71.57
2022-10-05T00:23:24.156Z,71.57
2022-10-05T00:24:24.162Z,71.47
2022-10-05T00:25:24.141Z,71.77
2022-10-05T00:26:24.150Z,71.57
2022-10-05T00:27:24.125Z,71.47
2022-10-05T00:28:24.164Z,71.57
2022-10-05T00:29:24.100Z,71.97
2022-10-05T00:30:24.075Z,72.08
2022-10-05T00:31:24.133Z,72.08
2022-10-05T00:32:24.083Z,72.08
2022-10-05T00:33:24.040Z,72.17
2022-10-05T00:34:24.030Z,71.67
2022-10-05T00:35:24.018Z,71.47
2022-10-05T00:36:24.042Z,71.57
2022-10-05T00:37:24.017Z,71.47
2022-10-05T00:38:24.034Z,71.16
2022-10-05T00:39:23.976Z,71.16
2022-10-05T00:40:23.965Z,71.16
2022-10-05T00:41:23.978Z,71.16
2022-10-05T00:42:23.948Z,70.96
2022-10-05T00:43:23.958Z,71.26
2022-10-05T00:44:23.920Z,71.26
2022-10-05T00:45:23.923Z,71.36
2022-10-05T00:46:23.987Z,71.67
2022-10-05T00:47:23.884Z,71.16
2022-10-05T00:48:23.887Z,71.57
2022-10-05T00:49:23.862Z,71.47
2022-10-05T00:50:23.858Z,71.26
2022-10-05T00:51:23.840Z,71.36
2022-10-05T00:52:23.853Z,71.36
2022-10-05T00:53:23.859Z,71.26
2022-10-05T00:54:23.838Z,71.36
2022-10-05T00:55:23.800Z,71.47
2022-10-05T00:56:23.821Z,71.77
2022-10-05T00:57:23.801Z,71.36
2022-10-05T00:58:23.781Z,71.47
2022-10-05T00:59:23.752Z,71.77
2022-10-05T01:00:23.763Z,71.57
2022-10-05T01:01:23.840Z,71.67
2022-10-05T01:02:23.773Z,71.47
2022-10-05T01:03:23.717Z,71.77
2022-10-05T01:04:23.696Z,71.57
2022-10-05T01:05:23.749Z,71.47
2022-10-05T01:06:23.689Z,71.57
2022-10-05T01:07:23.674Z,71.50
2022-10-05T01:08:23.656Z,71.40
2022-10-05T01:09:23.641Z,71.60
2022-10-05T01:10:23.681Z,71.67
2022-10-05T01:11:23.636Z,71.70
2022-10-05T01:12:23.632Z,71.50
2022-10-05T01:13:23.646Z,71.70
2022-10-05T01:14:23.586Z,71.91
2022-10-05T01:15:23.579Z,71.77
2022-10-05T01:16:23.616Z,71.60
2022-10-05T01:17:23.612Z,71.60
2022-10-05T01:18:23.572Z,71.80
2022-10-05T01:19:23.529Z,71.50
2022-10-05T01:20:23.520Z,71.91
2022-10-05T01:21:23.516Z,71.70
2022-10-05T01:22:23.497Z,71.60
2022-10-05T01:23:23.502Z,71.91
2022-10-05T01:24:23.498Z,72.11
2022-10-05T01:25:23.462Z,71.70
2022-10-05T01:26:23.524Z,71.91
2022-10-05T01:27:23.440Z,71.30
2022-10-05T01:28:23.685Z,71.50
2022-10-05T01:29:23.431Z,71.91
2022-10-05T01:30:23.409Z,71.80
2022-10-05T01:31:23.473Z,71.30
2022-10-05T01:32:23.487Z,72.01
2022-10-05T01:33:23.401Z,71.70
2022-10-05T01:34:23.392Z,71.60
2022-10-05T01:35:23.364Z,72.31
2022-10-05T01:36:23.347Z,72.21
2022-10-05T01:37:23.336Z,71.70
2022-10-05T01:38:23.360Z,71.77
2022-10-05T01:39:23.307Z,71.88
2022-10-05T01:40:23.306Z,71.50
2022-10-05T01:41:23.336Z,71.91
2022-10-05T01:42:23.415Z,71.47
2022-10-05T01:43:23.268Z,71.47
2022-10-05T01:44:23.268Z,71.70
2022-10-05T01:45:23.245Z,71.57
2022-10-05T01:46:23.309Z,71.47
2022-10-05T01:47:23.336Z,71.91
2022-10-05T01:48:23.208Z,72.01
2022-10-05T01:49:23.195Z,71.80
2022-10-05T01:50:23.210Z,71.70
2022-10-05T01:51:23.195Z,71.20
2022-10-05T01:52:23.180Z,71.91
2022-10-05T01:53:23.193Z,71.80
2022-10-05T01:54:23.143Z,72.21
2022-10-05T01:55:23.129Z,72.21
2022-10-05T01:56:23.154Z,72.21
2022-10-05T01:57:23.111Z,72.01
2022-10-05T01:58:23.115Z,72.01
2022-10-05T01:59:23.084Z,72.11
2022-10-05T02:00:23.074Z,72.01
2022-10-05T02:01:23.204Z,72.31
2022-10-05T02:02:23.090Z,72.31
2022-10-05T02:03:23.080Z,71.91
2022-10-05T02:04:56.488Z,71.50
2022-10-05T02:05:23.020Z,72.01
2022-10-05T02:06:23.009Z,71.91
2022-10-05T02:07:23.026Z,72.21
2022-10-05T02:08:22.985Z,71.53
2022-10-05T02:09:22.987Z,71.43
2022-10-05T02:10:22.985Z,71.84
2022-10-05T02:11:22.951Z,71.73
2022-10-05T02:12:22.941Z,71.53
2022-10-05T02:13:22.950Z,71.84
2022-10-05T02:14:22.939Z,71.43
2022-10-05T02:15:22.924Z,72.34
2022-10-05T02:16:22.982Z,72.55
2022-10-05T02:17:22.936Z,72.75
2022-10-05T02:18:22.894Z,72.65
2022-10-05T02:19:22.879Z,72.75
2022-10-05T02:20:22.866Z,72.65
2022-10-05T02:21:22.850Z,72.45
2022-10-05T02:22:22.830Z,72.34
2022-10-05T02:23:22.819Z,72.55
2022-10-05T02:24:22.808Z,72.04
2022-10-05T02:25:22.838Z,72.17
2022-10-05T02:26:22.792Z,72.34
2022-10-05T02:27:22.797Z,71.73
2022-10-05T02:28:22.813Z,72.96
2022-10-05T02:29:23.729Z,72.85
2022-10-05T02:30:22.800Z,72.85
2022-10-05T02:31:22.821Z,73.06
2022-10-05T02:32:22.728Z,72.75
2022-10-05T02:33:22.724Z,72.96
2022-10-05T02:34:22.699Z,72.85
2022-10-05T02:35:22.685Z,72.96
2022-10-05T02:36:22.752Z,72.85
2022-10-05T02:37:22.665Z,72.89
2022-10-05T02:38:22.664Z,73.06
2022-10-05T02:39:22.669Z,72.75
2022-10-05T02:40:22.645Z,72.85
2022-10-05T02:41:22.624Z,72.78
2022-10-05T02:42:22.622Z,72.75
2022-10-05T02:43:22.611Z,72.85
2022-10-05T02:44:22.623Z,72.99
2022-10-05T02:45:22.575Z,73.09
2022-10-05T02:46:22.706Z,73.30
2022-10-05T02:47:22.556Z,73.26
2022-10-05T02:48:22.545Z,73.36
2022-10-05T02:49:22.543Z,73.09
2022-10-05T02:50:22.554Z,73.09
2022-10-05T02:51:22.509Z,72.96
2022-10-05T02:52:22.503Z,72.89
2022-10-05T02:53:22.542Z,72.89
2022-10-05T02:54:22.523Z,72.99
2022-10-05T02:55:22.471Z,73.09
2022-10-05T02:56:22.540Z,73.19
2022-10-05T02:57:22.444Z,73.30
2022-10-05T02:58:22.436Z,73.50
2022-10-05T02:59:22.422Z,73.30
2022-10-05T03:00:22.411Z,73.39
2022-10-05T03:01:22.459Z,73.19
2022-10-05T03:02:22.496Z,73.19
2022-10-05T03:03:22.389Z,73.09
2022-10-05T03:04:22.394Z,73.19
2022-10-05T03:05:22.362Z,73.80
2022-10-05T03:06:22.345Z,73.16
2022-10-05T03:07:22.361Z,73.19
2022-10-05T03:08:22.373Z,73.50
2022-10-05T03:09:22.313Z,73.80
2022-10-05T03:10:22.313Z,73.70
2022-10-05T03:11:22.326Z,73.60
2022-10-05T03:12:22.293Z,73.30
2022-10-05T03:13:22.283Z,73.80
2022-10-05T03:14:22.258Z,73.70
2022-10-05T03:15:22.244Z,73.39
2022-10-05T03:16:22.286Z,73.60
2022-10-05T03:17:22.236Z,73.70
2022-10-05T03:18:22.263Z,73.63
2022-10-05T03:19:22.221Z,73.43
2022-10-05T03:20:22.191Z,74.04
2022-10-05T03:21:22.182Z,73.84
2022-10-05T03:22:22.203Z,73.94
2022-10-05T03:23:22.182Z,73.94
2022-10-05T03:24:22.152Z,73.94
2022-10-05T03:25:22.166Z,74.04
2022-10-05T03:26:22.164Z,73.84
2022-10-05T03:27:22.111Z,74.15
2022-10-05T03:28:22.335Z,74.04
2022-10-05T03:29:22.109Z,73.97
2022-10-05T03:30:22.088Z,74.24
2022-10-05T03:31:22.135Z,74.35
2022-10-05T03:32:22.099Z,74.35
2022-10-05T03:33:22.058Z,75.16
2022-10-05T03:34:22.115Z,75.26
2022-10-05T03:35:22.026Z,75.16
2022-10-05T03:36:22.024Z,74.99
2022-10-05T03:37:22.030Z,75.20
2022-10-05T03:38:22.007Z,75.09
2022-10-05T03:39:21.996Z,75.26
2022-10-05T03:40:21.978Z,75.20
2022-10-05T03:41:21.968Z,75.16
2022-10-05T03:42:21.962Z,75.20
2022-10-05T03:43:21.935Z,74.45
2022-10-05T03:44:21.964Z,74.45
2022-10-05T03:45:21.914Z,74.48
2022-10-05T03:46:21.963Z,74.35
2022-10-05T03:47:21.926Z,74.48
2022-10-05T03:48:21.913Z,74.38
2022-10-05T03:49:21.904Z,74.04
2022-10-05T03:50:21.887Z,74.18
2022-10-05T03:51:21.850Z,74.15
2022-10-05T03:52:21.852Z,74.08
2022-10-05T03:53:21.835Z,74.38
2022-10-05T03:54:21.824Z,74.18
2022-10-05T03:55:21.829Z,73.97
2022-10-05T03:56:21.792Z,74.18
2022-10-05T03:57:21.824Z,74.08
2022-10-05T03:58:21.768Z,74.38
2022-10-05T03:59:21.773Z,74.15
2022-10-05T04:00:21.760Z,74.38
2022-10-05T04:01:21.800Z,73.97
2022-10-05T04:02:21.775Z,74.04
2022-10-05T04:03:21.741Z,74.18
2022-10-05T04:04:21.702Z,74.08
2022-10-05T04:05:21.704Z,74.35
2022-10-05T04:06:21.699Z,74.04
2022-10-05T04:07:21.675Z,73.94
2022-10-05T04:08:21.702Z,74.04
2022-10-05T04:09:21.648Z,73.54
2022-10-05T04:10:21.644Z,74.04
2022-10-05T04:11:21.651Z,73.63
2022-10-05T04:12:21.617Z,73.54
2022-10-05T04:13:21.652Z,73.43
2022-10-05T04:14:21.592Z,73.74
2022-10-05T04:15:21.583Z,73.54
2022-10-05T04:16:21.652Z,73.54
2022-10-05T04:17:21.567Z,73.54
2022-10-05T04:18:21.563Z,73.54
2022-10-05T04:19:21.556Z,73.54
2022-10-05T04:20:21.527Z,73.63
2022-10-05T04:21:23.857Z,73.63
2022-10-05T04:22:21.530Z,73.54
2022-10-05T04:23:21.504Z,73.74
2022-10-05T04:24:21.495Z,73.63
2022-10-05T04:25:21.472Z,73.63
2022-10-05T04:26:21.495Z,73.23
2022-10-05T04:27:21.449Z,73.23
2022-10-05T04:28:21.564Z,73.43
2022-10-05T04:29:21.444Z,73.43
2022-10-05T04:30:21.417Z,73.43
2022-10-05T04:31:21.457Z,73.33
2022-10-05T04:32:21.405Z,73.02
2022-10-05T04:33:21.395Z,73.13
2022-10-05T04:34:21.415Z,73.13
2022-10-05T04:35:21.362Z,73.02
2022-10-05T04:36:21.350Z,73.02
2022-10-05T04:37:21.341Z,73.13
2022-10-05T04:38:21.370Z,73.02
2022-10-05T04:39:21.322Z,73.13
2022-10-05T04:40:21.361Z,73.33
2022-10-05T04:41:21.307Z,73.13
2022-10-05T04:42:21.310Z,73.74
2022-10-05T04:43:21.292Z,73.67
2022-10-05T04:44:21.263Z,73.74
2022-10-05T04:45:21.254Z,73.33
2022-10-05T04:46:21.278Z,73.63
2022-10-05T04:47:21.258Z,73.23
2022-10-05T04:48:21.220Z,73.74
2022-10-05T04:49:21.208Z,73.77
2022-10-05T04:50:21.196Z,73.43
2022-10-05T04:51:21.192Z,73.43
2022-10-05T04:52:21.223Z,73.23
2022-10-05T04:53:21.175Z,73.74
2022-10-05T04:54:21.173Z,73.74
2022-10-05T04:55:21.153Z,73.74
2022-10-05T04:56:21.129Z,73.54
2022-10-05T04:57:21.132Z,73.23
2022-10-05T04:58:21.137Z,73.23
2022-10-05T04:59:21.116Z,73.26
2022-10-05T05:00:21.093Z,73.33
2022-10-05T05:01:21.167Z,73.74
2022-10-05T05:02:21.062Z,73.77
2022-10-05T05:03:21.103Z,73.23
2022-10-05T05:04:21.066Z,73.13
2022-10-05T05:05:21.030Z,73.23
2022-10-05T05:06:21.032Z,73.43
2022-10-05T05:07:21.041Z,73.87
2022-10-05T05:08:21.014Z,73.33
2022-10-05T05:09:21.013Z,73.33
2022-10-05T05:10:21.009Z,73.63
2022-10-05T05:11:24.388Z,73.84
2022-10-05T05:12:20.955Z,73.33
2022-10-05T05:13:20.942Z,73.63
2022-10-05T05:14:20.966Z,73.63
2022-10-05T05:15:20.941Z,73.74
2022-10-05T05:16:20.998Z,73.43
2022-10-05T05:17:20.926Z,73.54
2022-10-05T05:18:20.891Z,73.74
2022-10-05T05:19:20.877Z,73.74
2022-10-05T05:20:20.883Z,73.33
2022-10-05T05:21:20.863Z,73.23
2022-10-05T05:22:20.871Z,73.13
2022-10-05T05:23:20.855Z,73.43
2022-10-05T05:24:20.840Z,73.23
2022-10-05T05:25:20.821Z,73.74
2022-10-05T05:26:20.844Z,73.26
2022-10-05T05:27:20.804Z,73.67
2022-10-05T05:28:20.854Z,73.33
2022-10-05T05:29:20.782Z,73.63
2022-10-05T05:30:20.770Z,73.63
2022-10-05T05:31:20.839Z,73.43
2022-10-05T05:32:20.737Z,73.74
2022-10-05T05:33:20.748Z,73.74
2022-10-05T05:34:20.746Z,73.43
2022-10-05T05:35:20.700Z,73.43
2022-10-05T05:36:23.183Z,73.54
2022-10-05T05:37:20.684Z,73.63
2022-10-05T05:38:20.685Z,73.63
2022-10-05T05:39:20.658Z,73.23
2022-10-05T05:40:20.645Z,73.63
2022-10-05T05:41:20.637Z,73.43
2022-10-05T05:42:20.674Z,73.33
2022-10-05T05:43:20.623Z,73.63
2022-10-05T05:44:20.622Z,73.63
2022-10-05T05:45:20.614Z,73.74
2022-10-05T05:46:20.658Z,73.63
2022-10-05T05:47:20.700Z,73.63
2022-10-05T05:48:20.562Z,73.84
2022-10-05T05:49:20.619Z,73.43
2022-10-05T05:50:20.549Z,73.63
2022-10-05T05:51:20.525Z,73.50
2022-10-05T05:52:20.512Z,73.63
2022-10-05T05:53:20.508Z,73.74
2022-10-05T05:54:20.490Z,73.63
2022-10-05T05:55:20.499Z,73.91
2022-10-05T05:56:20.469Z,73.70
2022-10-05T05:57:20.464Z,73.70
2022-10-05T05:58:20.487Z,73.39
2022-10-05T05:59:20.447Z,73.19
2022-10-05T06:00:20.424Z,73.60
2022-10-05T06:01:32.154Z,73.70
2022-10-05T06:02:20.525Z,73.60
2022-10-05T06:03:20.473Z,73.19
2022-10-05T06:04:20.399Z,73.30
2022-10-05T06:05:20.372Z,72.99
2022-10-05T06:06:20.359Z,72.89
2022-10-05T06:07:20.776Z,72.78
2022-10-05T06:08:20.382Z,72.75
2022-10-05T06:09:20.328Z,72.96
2022-10-05T06:10:20.321Z,72.65
2022-10-05T06:11:20.305Z,72.75
2022-10-05T06:12:20.306Z,72.85
2022-10-05T06:13:22.099Z,72.75
2022-10-05T06:14:20.585Z,72.96
2022-10-05T06:15:20.279Z,72.65
2022-10-05T06:16:20.316Z,72.85
2022-10-05T06:17:20.682Z,72.65
2022-10-05T06:18:20.233Z,72.65
2022-10-05T06:19:20.228Z,72.62
2022-10-05T06:20:20.215Z,72.72
2022-10-05T06:21:20.287Z,72.72
2022-10-05T06:22:20.188Z,72.31
2022-10-05T06:23:20.195Z,71.70
2022-10-05T06:24:20.176Z,72.17
2022-10-05T06:25:20.166Z,72.41
2022-10-05T06:26:20.180Z,71.97
2022-10-05T06:27:20.130Z,71.30
2022-10-05T06:28:20.226Z,72.58
2022-10-05T06:29:20.107Z,71.47
2022-10-05T06:30:20.118Z,71.57
2022-10-05T06:31:20.211Z,72.48
2022-10-05T06:32:20.084Z,71.47
2022-10-05T06:33:20.079Z,72.08
2022-10-05T06:34:20.052Z,71.84
2022-10-05T06:35:20.041Z,71.94
2022-10-05T06:36:20.033Z,71.53
2022-10-05T06:37:20.046Z,71.73
2022-10-05T06:38:20.027Z,71.23
2022-10-05T06:39:20.074Z,71.60
2022-10-05T06:40:20.015Z,71.40
2022-10-05T06:41:19.978Z,71.50
2022-10-05T06:42:19.995Z,71.40
2022-10-05T06:43:19.954Z,71.20
2022-10-05T06:44:19.937Z,71.50
2022-10-05T06:45:19.953Z,71.40
2022-10-05T06:46:20.029Z,71.09
2022-10-05T06:47:19.936Z,71.20
2022-10-05T06:48:19.922Z,71.26
2022-10-05T06:49:19.948Z,70.96
2022-10-05T06:50:19.909Z,71.06
2022-10-05T06:51:19.871Z,71.37
2022-10-05T06:52:19.917Z,70.65
2022-10-05T06:53:19.850Z,70.56
2022-10-05T06:54:19.838Z,70.56
2022-10-05T06:55:19.819Z,70.86
2022-10-05T06:56:19.805Z,70.65
2022-10-05T06:57:19.890Z,70.15
2022-10-05T06:58:19.786Z,70.56
2022-10-05T06:59:19.783Z,71.37
2022-10-05T07:00:19.766Z,71.37
2022-10-05T07:01:19.818Z,70.56
2022-10-05T07:02:19.806Z,70.52
2022-10-05T07:03:19.744Z,70.42
2022-10-05T07:04:19.720Z,70.56
2022-10-05T07:05:19.712Z,70.25
2022-10-05T07:06:19.723Z,70.21
2022-10-05T07:07:19.688Z,69.71
2022-10-05T07:08:19.697Z,69.92
2022-10-05T07:09:19.661Z,69.71
2022-10-05T07:10:19.656Z,69.81
2022-10-05T07:11:19.663Z,70.12
2022-10-05T07:12:19.775Z,69.95
2022-10-05T07:13:19.630Z,70.15
2022-10-05T07:14:19.610Z,70.32
2022-10-05T07:15:19.627Z,70.21
2022-10-05T07:16:19.676Z,70.69
2022-10-05T07:17:19.658Z,69.98
2022-10-05T07:18:19.593Z,69.78
2022-10-05T07:19:19.614Z,69.88
2022-10-05T07:20:19.551Z,69.68
2022-10-05T07:21:19.541Z,69.57
2022-10-05T07:22:19.597Z,69.37
2022-10-05T07:23:19.527Z,69.37
2022-10-05T07:24:19.497Z,69.57
2022-10-05T07:25:19.484Z,69.68
2022-10-05T07:26:19.481Z,69.57
2022-10-05T07:27:19.474Z,69.68
2022-10-05T07:28:19.525Z,69.37
2022-10-05T07:29:19.494Z,69.27
2022-10-05T07:30:19.435Z,69.44
2022-10-05T07:31:19.533Z,69.04
2022-10-05T07:32:19.406Z,68.94
2022-10-05T07:33:19.401Z,68.94
2022-10-05T07:34:19.423Z,69.01
2022-10-05T07:35:19.401Z,68.84
2022-10-05T07:36:19.364Z,69.44
2022-10-05T07:37:19.350Z,69.34
2022-10-05T07:38:19.338Z,69.04
2022-10-05T07:39:20.194Z,69.24
2022-10-05T07:40:19.327Z,69.41
2022-10-05T07:41:19.313Z,69.10
2022-10-05T07:42:19.304Z,68.94
2022-10-05T07:43:19.318Z,68.80
2022-10-05T07:44:19.321Z,68.90
2022-10-05T07:45:19.275Z,69.68
2022-10-05T07:46:19.356Z,69.58
2022-10-05T07:47:19.244Z,69.18
2022-10-05T07:48:19.230Z,69.38
2022-10-05T07:49:19.244Z,68.97
2022-10-05T07:50:19.239Z,68.74
2022-10-05T07:51:19.260Z,68.74
2022-10-05T07:52:19.464Z,68.74
2022-10-05T07:53:19.241Z,68.67
2022-10-05T07:54:19.198Z,68.97
2022-10-05T07:55:19.325Z,68.63
2022-10-05T07:56:19.140Z,69.14
2022-10-05T07:57:19.141Z,68.54
2022-10-05T07:58:19.119Z,68.13
2022-10-05T07:59:19.108Z,68.63
2022-10-05T08:00:19.132Z,68.84
2022-10-05T08:01:19.093Z,68.63
2022-10-05T08:02:19.237Z,69.24
2022-10-05T08:03:19.134Z,69.24
2022-10-05T08:04:19.049Z,68.74
2022-10-05T08:05:19.107Z,68.84
2022-10-05T08:06:19.064Z,68.94
2022-10-05T08:07:19.054Z,68.74
2022-10-05T08:08:20.420Z,68.63
2022-10-05T08:09:19.011Z,68.51
2022-10-05T08:10:19.124Z,68.23
2022-10-05T08:11:18.997Z,68.20
2022-10-05T08:12:18.979Z,68.60
2022-10-05T08:13:19.051Z,68.40
2022-10-05T08:14:18.944Z,68.30
2022-10-05T08:15:18.927Z,68.43
2022-10-05T08:16:19.142Z,68.20
2022-10-05T08:17:21.686Z,68.80
2022-10-05T08:18:18.907Z,68.80
2022-10-05T08:19:18.911Z,69.01
2022-10-05T08:20:18.906Z,68.71
2022-10-05T08:21:18.862Z,68.10
2022-10-05T08:22:18.869Z,68.17
2022-10-05T08:23:18.842Z,68.27
2022-10-05T08:24:18.925Z,68.17
2022-10-05T08:25:18.925Z,68.17
2022-10-05T08:26:18.814Z,67.90
2022-10-05T08:27:18.861Z,68.30
2022-10-05T08:28:19.061Z,68.17
2022-10-05T08:29:18.940Z,68.10
2022-10-05T08:30:18.764Z,68.40
2022-10-05T08:31:18.798Z,68.17
2022-10-05T08:32:20.838Z,67.86
2022-10-05T08:33:18.781Z,67.63
2022-10-05T08:34:18.851Z,67.33
2022-10-05T08:35:18.717Z,67.53
2022-10-05T08:36:18.699Z,68.07
2022-10-05T08:37:18.700Z,67.83
2022-10-05T08:38:18.825Z,67.83
2022-10-05T08:39:18.698Z,67.73
2022-10-05T08:40:18.741Z,67.83
2022-10-05T08:41:18.651Z,67.70
2022-10-05T08:42:18.645Z,67.60
2022-10-05T08:43:18.626Z,67.50
2022-10-05T08:44:18.662Z,67.16
2022-10-05T08:45:18.632Z,66.99
2022-10-05T08:46:18.625Z,67.27
2022-10-05T08:47:18.614Z,67.47
2022-10-05T08:48:18.564Z,67.16
2022-10-05T08:49:18.564Z,67.67
2022-10-05T08:50:18.546Z,67.27
2022-10-05T08:51:18.550Z,67.27
2022-10-05T08:52:18.536Z,67.47
2022-10-05T08:53:18.528Z,67.23
2022-10-05T08:54:18.680Z,66.83
2022-10-05T08:55:18.496Z,67.07
2022-10-05T08:56:20.914Z,66.66
2022-10-05T08:57:18.466Z,66.63
2022-10-05T08:58:18.455Z,67.27
2022-10-05T08:59:18.478Z,66.63
2022-10-05T09:00:19.100Z,66.73
2022-10-05T09:01:18.468Z,66.63
2022-10-05T09:02:18.807Z,65.82
2022-10-05T09:03:18.558Z,66.73
2022-10-05T09:04:18.393Z,66.66
2022-10-05T09:05:18.378Z,67.13
2022-10-05T09:06:18.374Z,66.63
2022-10-05T09:07:18.380Z,66.22
2022-10-05T09:08:18.454Z,66.76
2022-10-05T09:09:19.566Z,65.75
2022-10-05T09:10:18.355Z,65.95
2022-10-05T09:11:18.318Z,67.23
2022-10-05T09:12:18.323Z,66.73
2022-10-05T09:13:18.290Z,66.63
2022-10-05T09:14:18.282Z,66.63
2022-10-05T09:15:25.766Z,66.96
2022-10-05T09:16:19.309Z,66.46
2022-10-05T09:17:18.244Z,66.66
2022-10-05T09:18:18.251Z,66.46
2022-10-05T09:19:18.243Z,66.02
2022-10-05T09:20:18.350Z,66.13
2022-10-05T09:21:18.215Z,66.13
2022-10-05T09:22:18.446Z,66.02
2022-10-05T09:23:18.194Z,66.09
2022-10-05T09:24:18.184Z,65.89
2022-10-05T09:25:18.162Z,66.42
2022-10-05T09:26:18.175Z,66.50
2022-10-05T09:27:18.164Z,65.89
2022-10-05T09:28:18.191Z,65.49
2022-10-05T09:29:18.116Z,65.86
2022-10-05T09:30:18.261Z,66.09
2022-10-05T09:31:18.128Z,65.66
2022-10-05T09:32:18.125Z,65.46
2022-10-05T09:33:18.250Z,66.19
2022-10-05T09:34:18.084Z,65.76
2022-10-05T09:35:18.053Z,66.36
2022-10-05T09:36:18.065Z,66.06
2022-10-05T09:37:18.052Z,65.96
2022-10-05T09:38:18.022Z,65.83
2022-10-05T09:39:18.013Z,65.42
2022-10-05T09:40:18.108Z,65.33
2022-10-05T09:41:18.094Z,65.53
2022-10-05T09:42:18.108Z,66.13
2022-10-05T09:43:18.013Z,65.83
2022-10-05T09:44:18.031Z,65.83
2022-10-05T09:45:21.350Z,65.83
2022-10-05T09:46:17.974Z,66.03
2022-10-05T09:47:17.969Z,65.90
2022-10-05T09:48:17.935Z,65.70
2022-10-05T09:49:17.950Z,66.00
2022-10-05T09:50:17.971Z,65.59
2022-10-05T09:51:17.967Z,65.59
2022-10-05T09:52:19.110Z,65.59
2022-10-05T09:53:17.876Z,65.59
2022-10-05T09:54:17.843Z,65.30
2022-10-05T09:55:17.835Z,66.00
2022-10-05T09:56:17.861Z,65.26
2022-10-05T09:57:18.518Z,64.76
2022-10-05T09:58:17.829Z,65.77
2022-10-05T09:59:17.806Z,65.47
2022-10-05T10:00:17.831Z,65.44
2022-10-05T10:01:32.643Z,64.43
2022-10-05T10:02:17.941Z,64.53
2022-10-05T10:03:17.810Z,64.73
2022-10-05T10:04:17.736Z,64.13
2022-10-05T10:05:17.755Z,64.10
2022-10-05T10:06:17.740Z,63.59
2022-10-05T10:07:18.396Z,65.20
2022-10-05T10:08:17.724Z,64.50
2022-10-05T10:09:17.708Z,64.50
2022-10-05T10:10:18.239Z,64.20
2022-10-05T10:11:18.356Z,63.59
2022-10-05T10:12:18.459Z,64.07
2022-10-05T10:13:17.631Z,63.87
2022-10-05T10:14:17.773Z,63.26
2022-10-05T10:15:17.609Z,63.26
2022-10-05T10:16:17.673Z,63.46
2022-10-05T10:17:17.730Z,63.13
2022-10-05T10:18:17.608Z,63.23
2022-10-05T10:19:17.597Z,62.96
2022-10-05T10:20:17.800Z,63.13
2022-10-05T10:21:17.840Z,63.13
2022-10-05T10:22:20.482Z,63.33
2022-10-05T10:23:21.205Z,63.03
2022-10-05T10:24:25.242Z,63.13
2022-10-05T10:25:17.520Z,63.64
2022-10-05T10:26:17.490Z,63.43
2022-10-05T10:27:17.485Z,63.50
2022-10-05T10:28:17.532Z,63.31
2022-10-05T10:29:17.515Z,62.73
2022-10-05T10:30:17.456Z,63.13
2022-10-05T10:31:17.488Z,62.90
2022-10-05T10:32:17.434Z,63.00
2022-10-05T10:33:17.427Z,62.70
2022-10-05T10:34:21.820Z,61.67
2022-10-05T10:35:20.274Z,62.37
2022-10-05T10:36:17.382Z,61.67
2022-10-05T10:37:17.381Z,61.77
2022-10-05T10:38:17.348Z,61.77
2022-10-05T10:39:17.379Z,61.94
2022-10-05T10:40:17.330Z,61.77
2022-10-05T10:41:17.315Z,61.74
2022-10-05T10:42:17.322Z,61.87
2022-10-05T10:43:17.320Z,62.17
2022-10-05T10:44:17.295Z,61.87
2022-10-05T10:45:17.286Z,61.74
2022-10-05T10:46:17.361Z,61.64
2022-10-05T10:47:17.258Z,61.74
2022-10-05T10:48:17.253Z,61.81
2022-10-05T10:49:17.257Z,61.41
2022-10-05T10:50:17.222Z,61.54
2022-10-05T10:51:17.231Z,61.21
2022-10-05T10:52:17.194Z,61.41
2022-10-05T10:53:17.185Z,61.01
2022-10-05T10:54:17.185Z,61.11
2022-10-05T10:55:17.161Z,60.28
2022-10-05T10:56:17.461Z,60.48
2022-10-05T10:57:19.993Z,60.48
2022-10-05T10:58:17.558Z,60.98
2022-10-05T10:59:17.176Z,60.98
2022-10-05T11:00:19.190Z,61.28
2022-10-05T11:01:17.181Z,59.95
2022-10-05T11:02:17.286Z,60.25
2022-10-05T11:03:17.179Z,60.05
2022-10-05T11:04:17.081Z,60.15
2022-10-05T11:05:17.054Z,58.95
2022-10-05T11:06:17.049Z,59.35
2022-10-05T11:07:17.052Z,58.95
2022-10-05T11:08:17.026Z,59.62
2022-10-05T11:09:17.007Z,58.85
2022-10-05T11:10:17.041Z,58.52
2022-10-05T11:11:16.995Z,58.15
2022-10-05T11:12:16.972Z,58.52
2022-10-05T11:13:16.963Z,58.32
2022-10-05T11:14:16.979Z,58.22
2022-10-05T11:15:16.941Z,57.82
2022-10-05T11:16:19.459Z,58.32
2022-10-05T11:17:16.921Z,58.12
2022-10-05T11:18:16.971Z,57.55
2022-10-05T11:19:16.906Z,58.55
2022-10-05T11:20:16.914Z,58.25
2022-10-05T11:21:16.884Z,58.35
2022-10-05T11:22:16.881Z,58.85
2022-10-05T11:23:16.864Z,58.15
2022-10-05T11:24:16.838Z,59.05
2022-10-05T11:25:16.848Z,58.35
2022-10-05T11:26:16.816Z,58.35
2022-10-05T11:27:16.839Z,58.02
2022-10-05T11:28:16.856Z,58.25
2022-10-05T11:29:16.875Z,58.85
2022-10-05T11:30:16.792Z,58.35
2022-10-05T11:31:16.906Z,59.25
2022-10-05T11:32:16.752Z,58.25
2022-10-05T11:33:16.742Z,58.35
2022-10-05T11:34:16.780Z,58.25
2022-10-05T11:35:16.741Z,58.55
2022-10-05T11:36:16.735Z,58.55
2022-10-05T11:37:16.706Z,58.35
2022-10-05T11:38:16.691Z,59.58
2022-10-05T11:39:16.672Z,59.85
2022-10-05T11:40:16.697Z,59.05
2022-10-05T11:41:16.681Z,59.15
2022-10-05T11:42:16.646Z,59.68
2022-10-05T11:43:16.639Z,59.28
2022-10-05T11:44:16.649Z,59.18
2022-10-05T11:45:16.607Z,59.48
2022-10-05T11:46:16.685Z,59.38
2022-10-05T11:47:16.607Z,59.61
2022-10-05T11:48:16.583Z,59.70
2022-10-05T11:49:16.592Z,60.61
2022-10-05T11:50:16.576Z,60.41
2022-10-05T11:51:16.545Z,60.21
2022-10-05T11:52:16.558Z,59.61
2022-10-05T11:53:16.517Z,60.11
2022-10-05T11:54:16.511Z,60.41
2022-10-05T11:55:16.494Z,60.11
2022-10-05T11:56:16.599Z,60.18
2022-10-05T11:57:16.992Z,60.18
2022-10-05T11:58:16.488Z,60.38
2022-10-05T11:59:16.453Z,60.38
2022-10-05T12:00:16.447Z,60.11
2022-10-05T12:01:16.453Z,60.38
2022-10-05T12:02:16.417Z,60.78
2022-10-05T12:03:16.486Z,60.78
2022-10-05T12:04:16.477Z,61.08
2022-10-05T12:05:16.395Z,60.28
2022-10-05T12:06:16.415Z,59.98
2022-10-05T12:07:16.366Z,60.08
2022-10-05T12:08:16.368Z,59.68
2022-10-05T12:09:16.340Z,59.68
2022-10-05T12:10:16.350Z,60.05
2022-10-05T12:11:16.350Z,60.85
2022-10-05T12:12:16.311Z,60.15
2022-10-05T12:13:16.314Z,60.05
2022-10-05T12:14:16.310Z,60.15
2022-10-05T12:15:16.304Z,59.82
2022-10-05T12:16:16.322Z,59.52
2022-10-05T12:17:16.287Z,59.32
2022-10-05T12:18:16.256Z,58.75
2022-10-05T12:19:16.245Z,58.95
2022-10-05T12:20:16.224Z,59.22
2022-10-05T12:21:16.212Z,59.22
2022-10-05T12:22:16.225Z,59.52
2022-10-05T12:23:16.233Z,60.05
2022-10-05T12:24:16.259Z,59.35
2022-10-05T12:25:16.168Z,59.65
2022-10-05T12:26:16.163Z,59.22
2022-10-05T12:27:16.145Z,59.42
2022-10-05T12:28:16.208Z,59.75
2022-10-05T12:29:16.143Z,58.95
2022-10-05T12:30:16.107Z,59.55
2022-10-05T12:31:16.269Z,59.52
2022-10-05T12:32:16.096Z,59.35
2022-10-05T12:33:16.089Z,59.25
2022-10-05T12:34:16.079Z,59.65
2022-10-05T12:35:29.699Z,59.45
2022-10-05T12:36:16.232Z,59.02
2022-10-05T12:37:16.045Z,58.25
2022-10-05T12:38:16.037Z,59.45
2022-10-05T12:39:16.018Z,59.45
2022-10-05T12:40:16.011Z,59.45
2022-10-05T12:41:15.991Z,59.55
2022-10-05T12:42:16.058Z,59.52
2022-10-05T12:43:15.975Z,60.05
2022-10-05T12:44:16.006Z,59.82
2022-10-05T12:45:16.016Z,59.42
2022-10-05T12:46:16.066Z,59.12
2022-10-05T12:47:15.921Z,59.22
2022-10-05T12:48:15.922Z,59.32
2022-10-05T12:49:15.907Z,58.52
2022-10-05T12:50:15.893Z,59.39
2022-10-05T12:51:15.880Z,58.59
2022-10-05T12:52:15.865Z,59.22